sensor_id;sensor_type;location;lat;lon;timestamp;pressure;altitude;pressure_sealevel;temperature;humidity
30338;BME280;17143;51.888;5.408;2023-01-27T00:03:53;102358.91;;;5.45;100.00
30338;BME280;17143;51.888;5.408;2023-01-27T00:18:55;102362.91;;;5.50;100.00
30338;BME280;17143;51.888;5.408;2023-01-27T00:33:57;102361.66;;;5.38;100.00
30338;BME280;17143;51.888;5.408;2023-01-27T00:48:59;102365.47;;;5.33;100.00
30338;BME280;17143;51.888;5.408;2023-01-27T01:04:01;102367.47;;;5.19;100.00
30338;BME280;17143;51.888;5.408;2023-01-27T01:19:04;102390.56;;;5.26;100.00
30338;BME280;17143;51.888;5.408;2023-01-27T01:34:06;102382.97;;;5.19;100.00
30338;BME280;17143;51.888;5.408;2023-01-27T01:49:08;102400.88;;;5.17;100.00
30338;BME280;17143;51.888;5.408;2023-01-27T02:04:14;102395.72;;;5.17;100.00
30338;BME280;17143;51.888;5.408;2023-01-27T02:19:22;102399.06;;;5.16;100.00
30338;BME280;17143;51.888;5.408;2023-01-27T02:34:32;102418.19;;;5.10;100.00
30338;BME280;17143;51.888;5.408;2023-01-27T02:49:36;102427.56;;;4.83;100.00
30338;BME280;17143;51.888;5.408;2023-01-27T03:04:38;102433.59;;;4.75;100.00
30338;BME280;17143;51.888;5.408;2023-01-27T03:19:40;102437.22;;;4.69;100.00
30338;BME280;17143;51.888;5.408;2023-01-27T03:34:42;102464.53;;;4.67;100.00
30338;BME280;17143;51.888;5.408;2023-01-27T03:49:52;102467.59;;;4.63;100.00
30338;BME280;17143;51.888;5.408;2023-01-27T04:04:54;102448.78;;;4.72;100.00
30338;BME280;17143;51.888;5.408;2023-01-27T04:19:56;102472.16;;;4.74;100.00
30338;BME280;17143;51.888;5.408;2023-01-27T04:34:58;102492.53;;;4.79;100.00
30338;BME280;17143;51.888;5.408;2023-01-27T04:50:00;102478.59;;;4.86;100.00
30338;BME280;17143;51.888;5.408;2023-01-27T05:05:02;102488.16;;;4.87;100.00
30338;BME280;17143;51.888;5.408;2023-01-27T05:20:05;102492.13;;;4.92;100.00
30338;BME280;17143;51.888;5.408;2023-01-27T05:35:08;102502.31;;;4.99;100.00
30338;BME280;17143;51.888;5.408;2023-01-27T05:50:10;102508.13;;;5.05;100.00
30338;BME280;17143;51.888;5.408;2023-01-27T06:05:13;102518.00;;;5.09;100.00
30338;BME280;17143;51.888;5.408;2023-01-27T06:20:15;102522.84;;;5.06;100.00
30338;BME280;17143;51.888;5.408;2023-01-27T06:35:17;102545.22;;;5.14;100.00
30338;BME280;17143;51.888;5.408;2023-01-27T06:50:19;102554.75;;;5.07;100.00
30338;BME280;17143;51.888;5.408;2023-01-27T07:05:21;102551.25;;;5.06;100.00
30338;BME280;17143;51.888;5.408;2023-01-27T07:20:23;102555.22;;;5.03;100.00
30338;BME280;17143;51.888;5.408;2023-01-27T07:35:25;102559.47;;;5.02;100.00
30338;BME280;17143;51.888;5.408;2023-01-27T07:50:27;102559.88;;;4.89;100.00
30338;BME280;17143;51.888;5.408;2023-01-27T08:05:32;102569.28;;;4.65;100.00
30338;BME280;17143;51.888;5.408;2023-01-27T08:20:34;102597.69;;;4.65;100.00
30338;BME280;17143;51.888;5.408;2023-01-27T08:35:37;102614.75;;;4.56;100.00
30338;BME280;17143;51.888;5.408;2023-01-27T08:50:39;102629.19;;;4.78;100.00
30338;BME280;17143;51.888;5.408;2023-01-27T09:05:41;102640.19;;;4.92;100.00
30338;BME280;17143;51.888;5.408;2023-01-27T09:20:43;102663.69;;;5.03;100.00
30338;BME280;17143;51.888;5.408;2023-01-27T09:35:47;102676.00;;;5.05;100.00
30338;BME280;17143;51.888;5.408;2023-01-27T09:50:54;102672.44;;;4.96;100.00
30338;BME280;17143;51.888;5.408;2023-01-27T10:06:11;102684.59;;;4.97;100.00
30338;BME280;17143;51.888;5.408;2023-01-27T10:21:21;102681.25;;;4.98;100.00
30338;BME280;17143;51.888;5.408;2023-01-27T10:36:29;102677.91;;;4.99;100.00
30338;BME280;17143;51.888;5.408;2023-01-27T10:51:37;102684.06;;;5.08;100.00
30338;BME280;17143;51.888;5.408;2023-01-27T11:06:43;102691.84;;;5.17;100.00
30338;BME280;17143;51.888;5.408;2023-01-27T11:21:47;102659.19;;;5.17;100.00
30338;BME280;17143;51.888;5.408;2023-01-27T11:36:51;102655.41;;;5.22;100.00
30338;BME280;17143;51.888;5.408;2023-01-27T11:51:59;102641.06;;;5.41;100.00
30338;BME280;17143;51.888;5.408;2023-01-27T12:07:05;102635.16;;;5.42;100.00
30338;BME280;17143;51.888;5.408;2023-01-27T12:22:16;102619.63;;;5.42;100.00
30338;BME280;17143;51.888;5.408;2023-01-27T12:37:23;102606.16;;;5.71;100.00
30338;BME280;17143;51.888;5.408;2023-01-27T12:52:28;102605.41;;;5.80;100.00
30338;BME280;17143;51.888;5.408;2023-01-27T13:07:37;102607.00;;;5.87;98.96
30338;BME280;17143;51.888;5.408;2023-01-27T13:22:43;102583.72;;;5.87;98.64
30338;BME280;17143;51.888;5.408;2023-01-27T13:37:50;102597.44;;;6.03;99.48
30338;BME280;17143;51.888;5.408;2023-01-27T13:52:55;102591.94;;;6.00;98.87
30338;BME280;17143;51.888;5.408;2023-01-27T14:08:04;102601.03;;;5.79;99.58
30338;BME280;17143;51.888;5.408;2023-01-27T14:23:23;102609.38;;;5.77;99.63
30338;BME280;17143;51.888;5.408;2023-01-27T14:38:31;102621.72;;;5.79;96.73
30338;BME280;17143;51.888;5.408;2023-01-27T14:53:46;102635.66;;;5.73;97.48
30338;BME280;17143;51.888;5.408;2023-01-27T15:08:56;102654.22;;;5.69;98.54
30338;BME280;17143;51.888;5.408;2023-01-27T15:24:28;102659.47;;;5.44;99.22
30338;BME280;17143;51.888;5.408;2023-01-27T15:39:51;102669.94;;;5.37;100.00
30338;BME280;17143;51.888;5.408;2023-01-27T15:54:55;102680.28;;;5.37;100.00
30338;BME280;17143;51.888;5.408;2023-01-27T16:09:59;102673.69;;;5.32;100.00
30338;BME280;17143;51.888;5.408;2023-01-27T16:25:11;102668.97;;;5.28;100.00
30338;BME280;17143;51.888;5.408;2023-01-27T16:40:21;102690.88;;;5.32;100.00
30338;BME280;17143;51.888;5.408;2023-01-27T16:55:24;102704.06;;;5.26;100.00
30338;BME280;17143;51.888;5.408;2023-01-27T17:10:26;102714.09;;;5.23;100.00
30338;BME280;17143;51.888;5.408;2023-01-27T17:25:30;102726.53;;;5.19;100.00
30338;BME280;17143;51.888;5.408;2023-01-27T17:40:38;102752.03;;;5.16;100.00
30338;BME280;17143;51.888;5.408;2023-01-27T17:55:41;102757.00;;;5.14;100.00
30338;BME280;17143;51.888;5.408;2023-01-27T18:10:43;102772.03;;;5.10;99.81
30338;BME280;17143;51.888;5.408;2023-01-27T18:25:45;102783.69;;;5.06;99.01
30338;BME280;17143;51.888;5.408;2023-01-27T18:40:47;102785.19;;;5.04;98.17
30338;BME280;17143;51.888;5.408;2023-01-27T18:55:49;102799.69;;;4.95;98.68
30338;BME280;17143;51.888;5.408;2023-01-27T19:10:51;102822.78;;;4.93;99.04
30338;BME280;17143;51.888;5.408;2023-01-27T19:25:55;102830.06;;;4.89;99.37
30338;BME280;17143;51.888;5.408;2023-01-27T19:40:58;102825.72;;;4.81;99.57
30338;BME280;17143;51.888;5.408;2023-01-27T19:56:00;102838.69;;;4.74;99.47
30338;BME280;17143;51.888;5.408;2023-01-27T20:11:02;102836.88;;;4.73;100.00
30338;BME280;17143;51.888;5.408;2023-01-27T20:26:04;102840.44;;;4.66;100.00
30338;BME280;17143;51.888;5.408;2023-01-27T20:41:08;102841.94;;;4.64;100.00
30338;BME280;17143;51.888;5.408;2023-01-27T20:56:12;102835.81;;;4.55;100.00
30338;BME280;17143;51.888;5.408;2023-01-27T21:11:14;102842.38;;;4.45;100.00
30338;BME280;17143;51.888;5.408;2023-01-27T21:26:17;102839.84;;;4.38;100.00
30338;BME280;17143;51.888;5.408;2023-01-27T21:41:21;102827.03;;;4.30;100.00
30338;BME280;17143;51.888;5.408;2023-01-27T21:56:23;102827.59;;;4.28;100.00
30338;BME280;17143;51.888;5.408;2023-01-27T22:11:25;102812.38;;;4.22;100.00
30338;BME280;17143;51.888;5.408;2023-01-27T22:26:27;102818.91;;;4.12;100.00
30338;BME280;17143;51.888;5.408;2023-01-27T22:41:30;102818.56;;;4.09;100.00
30338;BME280;17143;51.888;5.408;2023-01-27T22:56:32;102812.06;;;3.97;100.00
30338;BME280;17143;51.888;5.408;2023-01-27T23:11:34;102792.34;;;3.97;100.00
30338;BME280;17143;51.888;5.408;2023-01-27T23:26:36;102806.44;;;3.85;100.00
30338;BME280;17143;51.888;5.408;2023-01-27T23:41:38;102811.59;;;3.85;100.00
30338;BME280;17143;51.888;5.408;2023-01-27T23:56:40;102811.84;;;3.80;100.00
